Lluvia Desde: 21-10-2018 02:00 Hasta: 10:59 Advertencia de: Lluvia Nivel: Naranja info button

Nearby METAR Reports

 

LEZL - Sevilla, Spain
Distance from station: ESE 25km
Actualizado: 21/10/2018 06:30
Parcialmente nublado
Parcialmente nublado
 Vento de NNE
Vento: NNE 6 km/h
Temperatura: 16°C
Ponto de Orvalho: 16°C
Humidade: 100%
Barómetro: 1016 hPa
Clouds: Parcialmente nublado
Visibility: 10 km
Cloud details: Parcialmente nublado 1433 m
2018/10/21 04:30 LEZL 210430Z 02003KT 340V050 9999 SCT047 16/16 Q1016 NOSIG
LEMO - Morón, Spain
Distance from station: SE 65km
Actualizado: 21/10/2018 06:00
Mist, Parcialmente nublado
Mist, Parcialmente nublado
 Vento de varies
Vento: varies 4 km/h
Temperatura: 14°C
Ponto de Orvalho: 14°C
Humidade: 100%
Barómetro: 1016 hPa
Resumo: Mist
Clouds: Parcialmente nublado
Visibility: 5 km
2018/10/21 04:00 LEMO 210400Z VRB02KT 5000 BR NSC 14/14 Q1016 NOSIG
LEJR - Jeréz, Spain
Distance from station: S 87km
Actualizado: 21/10/2018 06:30
Muito nublado
Muito nublado
 Vento de NE
Vento: NE 6 km/h
Temperatura: 16°C
Ponto de Orvalho: 15°C
Humidade: 94%
Barómetro: 1016 hPa
Clouds: Muito nublado
Visibility: 10 km
Cloud details: Muito nublado 1676 m
2018/10/21 04:30 LEJR 210430Z 05003KT 9999 BKN055 16/15 Q1016
 
LERT - Rota, Spain
Distance from station: S 101km
Actualizado: 21/10/2018 06:00
Parcialmente nublado
Parcialmente nublado
 Vento de NE
Vento: NE 9 km/h
Temperatura: 15°C
Ponto de Orvalho: 14°C
Humidade: 94%
Barómetro: 1015 hPa
Clouds: Parcialmente nublado
Visibility: 10 km
Cloud details: Parcialmente nublado 1494 m
2018/10/21 04:00 LERT 210400Z 04005KT 9999 SCT049 15/14 Q1015 NOSIG
LEMG - Málaga, Spain
Distance from station: ESE 178km
Actualizado: 21/10/2018 06:30
Muito nublado
Muito nublado
 Vento de W
Vento: W 17 km/h
Temperatura: 19°C
Ponto de Orvalho: 16°C
Humidade: 83%
Barómetro: 1016 hPa
Clouds: Muito nublado
Visibility: 10 km
Cloud details: Muito nublado 610 m
2018/10/21 04:30 LEMG 210430Z 27009KT 9999 BKN020 19/16 Q1016 NOSIG
LEBA - Córdoba, Spain
Distance from station: ENE 123km
Actualizado: 21/10/2018 06:30
Pluviosidade, Parcialmente nublado
Pluviosidade, Parcialmente nublado
 Vento de ENE
Vento: ENE 19 km/h
Temperatura: 16°C
Ponto de Orvalho: 15°C
Humidade: 94%
Barómetro: 1017 hPa
Resumo: Pluviosidade
Clouds: Parcialmente nublado
Visibility: 10 km
2018/10/21 04:30 LEBA 210430Z AUTO 07010KT 040V110 9999 RA NSC 16/15 Q1017 RETS
 
LEGR - Granada, Spain
Distance from station: E 215km
Actualizado: 21/10/2018 06:30
Parcialmente nublado
Parcialmente nublado
 Vento de W
Vento: W 11 km/h
Temperatura: 13°C
Ponto de Orvalho: 13°C
Humidade: 100%
Barómetro: 1018 hPa
Clouds: Parcialmente nublado
Visibility: 10 km
Cloud details: Few Clouds 2438 m
Parcialmente nublado 3048 m
2018/10/21 04:30 LEGR 210430Z 26006KT 9999 FEW080 SCT100 13/13 Q1018
LEAM - Almería, Spain
Distance from station: E 344km
Actualizado: 21/10/2018 06:30
Few Clouds
Few Clouds
 Vento de NNE
Vento: NNE 13 km/h
Temperatura: 22°C
Ponto de Orvalho: 16°C
Humidade: 69%
Barómetro: 1016 hPa
Clouds: Few Clouds
Visibility: 10 km
Cloud details: Few Clouds 457 m
2018/10/21 04:30 LEAM 210430Z 02007KT 340V080 9999 FEW015 22/16 Q1016
GCLP - Las Palmas/Aeropuerto, Spain
Distance from station: SO 1410km
Actualizado: 21/10/2018 06:30
Céu Limpo
Céu Limpo
 Vento de varies
Vento: varies 4 km/h
Temperatura: 19°C
Ponto de Orvalho: 12°C
Humidade: 64%
Barómetro: 1014 hPa
Resumo: Céu Limpo
Visibility: greater than 10 km
2018/10/21 04:30 GCLP 210430Z VRB02KT CAVOK 19/12 Q1014 NOSIG
 
LEMD - Madrid/Barajas, Spain
Distance from station: NNE 402km
Actualizado: 21/10/2018 06:30
Parcialmente nublado
Parcialmente nublado
 Vento de varies
Vento: varies 2 km/h
Temperatura: 15°C
Ponto de Orvalho: 14°C
Humidade: 94%
Barómetro: 1022 hPa
Clouds: Parcialmente nublado
Visibility: 10 km
Cloud details: Parcialmente nublado 1219 m
2018/10/21 04:30 LEMD 210430Z VRB01KT 9999 SCT040 15/14 Q1022 R88/29//95 NOSIG
LEVD - Valladolid, Spain
Distance from station: N 492km
Actualizado: 20/10/2018 21:30
NOT Current
Céu Limpo
Céu Limpo
 Vento de E
Vento: E 24 km/h
Temperatura: 15°C
Ponto de Orvalho: 9°C
Humidade: 68%
Barómetro: 1022 hPa
Resumo: Céu Limpo
Visibility: greater than 10 km
2018/10/20 19:30 LEVD 201930Z 08013KT 050V110 CAVOK 15/09 Q1022
LEBL - Barcelona, Spain
Distance from station: NE 816km
Actualizado: 21/10/2018 06:30
Few Clouds
Few Clouds
 Vento de NNW
Vento: NNW 15 km/h
Temperatura: 16°C
Ponto de Orvalho: 14°C
Humidade: 88%
Barómetro: 1022 hPa
Clouds: Few Clouds
Visibility: 10 km
Cloud details: Few Clouds 1219 m
2018/10/21 04:30 LEBL 210430Z 33008KT 9999 FEW040 16/14 Q1022 NOSIG